createdAt,value
2023-03-27T00:01:30.827Z,69.10
2023-03-27T00:09:37.447Z,69.00
2023-03-27T00:17:46.920Z,68.60
2023-03-27T00:25:53.040Z,68.80
2023-03-27T00:34:01.701Z,68.80
2023-03-27T00:42:07.272Z,67.60
2023-03-27T00:50:23.869Z,67.80
2023-03-27T00:58:32.651Z,66.00
2023-03-27T01:06:42.343Z,64.90
2023-03-27T01:15:00.997Z,63.70
2023-03-27T01:23:59.940Z,63.30
2023-03-27T01:32:30.902Z,63.90
2023-03-27T01:40:42.994Z,64.20
2023-03-27T01:48:53.946Z,65.10
2023-03-27T01:57:05.803Z,64.40
2023-03-27T02:05:16.677Z,63.70
2023-03-27T02:13:29.465Z,61.40
2023-03-27T02:21:35.138Z,60.70
2023-03-27T02:29:56.990Z,61.50
2023-03-27T02:38:11.866Z,62.60
2023-03-27T02:46:33.080Z,63.90
2023-03-27T02:54:43.127Z,65.40
2023-03-27T03:02:53.962Z,66.00
2023-03-27T03:11:05.011Z,67.10
2023-03-27T03:19:15.009Z,67.60
2023-03-27T03:27:21.221Z,67.10
2023-03-27T03:35:49.852Z,65.00
2023-03-27T03:44:21.782Z,64.10
2023-03-27T03:52:30.707Z,63.20
2023-03-27T04:00:38.461Z,61.60
2023-03-27T04:08:51.290Z,61.40
2023-03-27T04:17:19.730Z,62.00
2023-03-27T04:25:28.852Z,63.20
2023-03-27T04:33:34.967Z,62.60
2023-03-27T04:41:46.060Z,62.70
2023-03-27T04:49:51.706Z,62.70
2023-03-27T04:58:08.108Z,61.90
2023-03-27T05:06:15.671Z,60.40
2023-03-27T05:14:25.235Z,61.60
2023-03-27T05:22:32.423Z,59.10
2023-03-27T05:30:49.969Z,58.00
2023-03-27T05:38:59.633Z,57.70
2023-03-27T05:47:15.533Z,57.20
2023-03-27T05:55:21.290Z,56.80
2023-03-27T06:03:30.665Z,57.20
2023-03-27T06:11:39.387Z,56.30
2023-03-27T06:19:47.911Z,56.50
2023-03-27T06:27:54.525Z,56.70
2023-03-27T06:36:03.166Z,57.30
2023-03-27T06:44:10.686Z,56.90
2023-03-27T06:52:41.439Z,56.30
2023-03-27T07:01:07.326Z,56.10
2023-03-27T07:09:41.479Z,56.10
2023-03-27T07:17:55.327Z,56.70
2023-03-27T07:26:07.083Z,56.00
2023-03-27T07:34:38.923Z,56.80
2023-03-27T07:42:53.883Z,55.50
2023-03-27T07:51:13.389Z,56.60
2023-03-27T07:59:23.472Z,56.30
2023-03-27T08:07:30.503Z,55.10
2023-03-27T08:15:41.288Z,55.10
2023-03-27T08:23:59.457Z,55.60
2023-03-27T08:32:10.994Z,55.20
2023-03-27T08:40:26.424Z,54.90
2023-03-27T08:48:55.248Z,54.80
2023-03-27T08:57:01.244Z,53.70
2023-03-27T09:05:19.190Z,52.50
2023-03-27T09:13:30.798Z,51.10
2023-03-27T09:21:45.942Z,51.60
2023-03-27T09:30:06.552Z,51.90
2023-03-27T09:38:42.325Z,51.70
2023-03-27T09:46:59.869Z,50.80
2023-03-27T09:55:30.981Z,50.00
2023-03-27T10:03:44.504Z,49.40
2023-03-27T10:11:54.741Z,49.00
2023-03-27T10:20:16.091Z,48.60
2023-03-27T10:28:29.918Z,48.30
2023-03-27T10:36:57.837Z,47.90
2023-03-27T10:45:09.879Z,47.70
2023-03-27T10:53:22.071Z,48.10
2023-03-27T11:01:48.280Z,51.60
2023-03-27T11:10:09.048Z,53.40
2023-03-27T11:18:39.739Z,54.30
2023-03-27T11:26:55.926Z,55.30
2023-03-27T11:35:10.079Z,55.80
2023-03-27T11:43:29.303Z,56.00
2023-03-27T11:51:57.820Z,55.90
2023-03-27T12:00:30.766Z,55.70
2023-03-27T12:08:55.027Z,53.40
2023-03-27T12:17:28.356Z,53.40
2023-03-27T12:26:03.975Z,53.40
2023-03-27T12:34:51.219Z,53.30
2023-03-27T12:43:09.580Z,52.50
2023-03-27T12:51:20.030Z,51.30
2023-03-27T12:59:34.396Z,51.50
2023-03-27T13:07:54.666Z,51.80
2023-03-27T13:16:50.913Z,52.10
2023-03-27T13:25:23.619Z,51.90
2023-03-27T13:33:43.571Z,52.30
2023-03-27T13:42:09.851Z,51.20
2023-03-27T13:50:55.802Z,52.70
2023-03-27T13:59:42.417Z,54.50
2023-03-27T14:08:13.413Z,54.90
2023-03-27T14:17:07.930Z,56.90
2023-03-27T14:25:20.485Z,59.60
2023-03-27T14:33:39.457Z,60.90
2023-03-27T14:41:57.428Z,61.90
2023-03-27T14:50:06.419Z,61.80
2023-03-27T14:58:25.429Z,62.30
2023-03-27T15:06:36.938Z,62.10
2023-03-27T15:14:47.123Z,64.00
2023-03-27T15:23:01.133Z,66.70
2023-03-27T15:31:10.897Z,66.60
2023-03-27T15:39:26.764Z,65.00
2023-03-27T15:47:35.761Z,65.20
2023-03-27T15:55:43.920Z,64.90
2023-03-27T16:04:04.993Z,63.70
2023-03-27T16:12:18.468Z,63.80
2023-03-27T16:20:50.634Z,63.60
2023-03-27T16:28:57.720Z,63.70
2023-03-27T16:37:05.901Z,63.80
2023-03-27T16:45:16.771Z,67.60
2023-03-27T16:53:24.857Z,69.00
2023-03-27T17:01:33.339Z,69.70
2023-03-27T17:09:41.798Z,70.60
2023-03-27T17:17:47.367Z,71.20
2023-03-27T17:25:55.905Z,71.90
2023-03-27T17:34:01.705Z,72.80
2023-03-27T17:42:09.882Z,73.40
2023-03-27T17:50:15.351Z,72.90
2023-03-27T17:58:23.938Z,72.60
2023-03-27T18:06:29.522Z,71.90
2023-03-27T18:14:38.436Z,70.90
2023-03-27T18:22:44.076Z,70.10
2023-03-27T18:31:04.981Z,69.40
2023-03-27T18:39:10.580Z,69.60
2023-03-27T18:47:21.381Z,69.20
2023-03-27T18:55:27.310Z,69.80
2023-03-27T19:03:36.652Z,69.70
2023-03-27T19:11:44.186Z,68.90
2023-03-27T19:20:15.613Z,69.10
2023-03-27T19:28:44.366Z,68.30
2023-03-27T19:36:52.595Z,68.00
2023-03-27T19:44:58.415Z,67.60
2023-03-27T19:53:08.980Z,67.90
2023-03-27T20:01:15.014Z,68.30
2023-03-27T20:09:25.996Z,68.20
2023-03-27T20:17:32.311Z,68.80
2023-03-27T20:25:40.769Z,70.10
2023-03-27T20:33:46.302Z,70.60
2023-03-27T20:41:59.392Z,71.40
2023-03-27T20:50:06.775Z,71.70
2023-03-27T20:58:15.076Z,71.80
2023-03-27T21:06:23.484Z,71.70
2023-03-27T21:14:37.626Z,71.60
2023-03-27T21:22:43.511Z,71.10
2023-03-27T21:30:51.593Z,72.30
2023-03-27T21:38:57.160Z,72.00
2023-03-27T21:47:05.281Z,71.80
2023-03-27T21:55:11.589Z,71.60
2023-03-27T22:03:19.776Z,71.30
2023-03-27T22:11:25.261Z,72.30
2023-03-27T22:19:33.687Z,73.00
2023-03-27T22:27:39.794Z,74.80
2023-03-27T22:35:53.734Z,75.70
2023-03-27T22:43:59.149Z,75.90
2023-03-27T22:52:07.738Z,75.40
2023-03-27T23:00:14.923Z,74.00
2023-03-27T23:08:24.450Z,72.60
2023-03-27T23:16:29.948Z,71.10
2023-03-27T23:24:38.118Z,70.70
2023-03-27T23:32:43.733Z,70.70
2023-03-27T23:40:58.616Z,68.80
2023-03-27T23:49:04.978Z,67.30
2023-03-27T23:57:13.103Z,66.30
